sensor_id;sensor_type;location;lat;lon;timestamp;P1;durP1;ratioP1;P2;durP2;ratioP2
16660;SDS011;8444;52.012;5.048;2022-12-18T00:00:24;52.17;;;21.33;;
16660;SDS011;8444;52.012;5.048;2022-12-18T00:02:49;57.97;;;23.53;;
16660;SDS011;8444;52.012;5.048;2022-12-18T00:05:15;63.97;;;22.00;;
16660;SDS011;8444;52.012;5.048;2022-12-18T00:07:40;60.97;;;22.13;;
16660;SDS011;8444;52.012;5.048;2022-12-18T00:10:05;47.67;;;20.50;;
16660;SDS011;8444;52.012;5.048;2022-12-18T00:12:31;49.10;;;22.73;;
16660;SDS011;8444;52.012;5.048;2022-12-18T00:14:56;49.30;;;20.60;;
16660;SDS011;8444;52.012;5.048;2022-12-18T00:17:21;53.30;;;22.03;;
16660;SDS011;8444;52.012;5.048;2022-12-18T00:19:46;51.17;;;20.87;;
16660;SDS011;8444;52.012;5.048;2022-12-18T00:22:11;50.93;;;20.50;;
16660;SDS011;8444;52.012;5.048;2022-12-18T00:24:37;67.13;;;24.37;;
16660;SDS011;8444;52.012;5.048;2022-12-18T00:27:02;57.50;;;23.03;;
16660;SDS011;8444;52.012;5.048;2022-12-18T00:29:27;62.43;;;22.63;;
16660;SDS011;8444;52.012;5.048;2022-12-18T00:31:52;48.90;;;21.70;;
16660;SDS011;8444;52.012;5.048;2022-12-18T00:34:18;42.23;;;19.33;;
16660;SDS011;8444;52.012;5.048;2022-12-18T00:36:43;46.20;;;21.13;;
16660;SDS011;8444;52.012;5.048;2022-12-18T00:39:09;45.97;;;22.67;;
16660;SDS011;8444;52.012;5.048;2022-12-18T00:41:35;57.37;;;20.43;;
16660;SDS011;8444;52.012;5.048;2022-12-18T00:44:18;57.30;;;20.37;;
16660;SDS011;8444;52.012;5.048;2022-12-18T00:46:44;47.60;;;22.27;;
16660;SDS011;8444;52.012;5.048;2022-12-18T00:49:10;44.43;;;20.10;;
16660;SDS011;8444;52.012;5.048;2022-12-18T00:51:38;48.13;;;20.47;;
16660;SDS011;8444;52.012;5.048;2022-12-18T00:54:04;46.03;;;18.60;;
16660;SDS011;8444;52.012;5.048;2022-12-18T00:56:29;55.47;;;21.03;;
16660;SDS011;8444;52.012;5.048;2022-12-18T00:58:55;53.83;;;20.77;;
16660;SDS011;8444;52.012;5.048;2022-12-18T01:01:20;50.03;;;20.93;;
16660;SDS011;8444;52.012;5.048;2022-12-18T01:03:45;49.70;;;20.00;;
16660;SDS011;8444;52.012;5.048;2022-12-18T01:06:12;47.53;;;21.13;;
16660;SDS011;8444;52.012;5.048;2022-12-18T01:08:38;55.57;;;22.17;;
16660;SDS011;8444;52.012;5.048;2022-12-18T01:11:10;42.30;;;18.97;;
16660;SDS011;8444;52.012;5.048;2022-12-18T01:13:35;49.60;;;20.07;;
16660;SDS011;8444;52.012;5.048;2022-12-18T01:16:01;51.50;;;20.00;;
16660;SDS011;8444;52.012;5.048;2022-12-18T01:18:26;42.57;;;19.07;;
16660;SDS011;8444;52.012;5.048;2022-12-18T01:20:51;46.40;;;19.40;;
16660;SDS011;8444;52.012;5.048;2022-12-18T01:23:16;50.77;;;19.53;;
16660;SDS011;8444;52.012;5.048;2022-12-18T01:25:41;47.10;;;22.20;;
16660;SDS011;8444;52.012;5.048;2022-12-18T01:28:07;46.90;;;21.53;;
16660;SDS011;8444;52.012;5.048;2022-12-18T01:30:32;48.90;;;21.07;;
16660;SDS011;8444;52.012;5.048;2022-12-18T01:32:57;49.73;;;20.20;;
16660;SDS011;8444;52.012;5.048;2022-12-18T01:35:22;57.83;;;21.17;;
16660;SDS011;8444;52.012;5.048;2022-12-18T01:37:47;45.37;;;19.63;;
16660;SDS011;8444;52.012;5.048;2022-12-18T01:40:13;47.43;;;19.37;;
16660;SDS011;8444;52.012;5.048;2022-12-18T01:42:38;45.03;;;20.40;;
16660;SDS011;8444;52.012;5.048;2022-12-18T01:45:09;53.60;;;20.10;;
16660;SDS011;8444;52.012;5.048;2022-12-18T01:50:15;57.57;;;21.63;;
16660;SDS011;8444;52.012;5.048;2022-12-18T01:52:42;52.93;;;20.63;;
16660;SDS011;8444;52.012;5.048;2022-12-18T01:55:08;52.77;;;21.27;;
16660;SDS011;8444;52.012;5.048;2022-12-18T01:57:34;47.20;;;20.67;;
16660;SDS011;8444;52.012;5.048;2022-12-18T02:00:00;48.13;;;18.40;;
16660;SDS011;8444;52.012;5.048;2022-12-18T02:02:26;46.77;;;20.40;;
16660;SDS011;8444;52.012;5.048;2022-12-18T02:04:52;52.03;;;20.77;;
16660;SDS011;8444;52.012;5.048;2022-12-18T02:10:06;45.90;;;20.37;;
16660;SDS011;8444;52.012;5.048;2022-12-18T02:12:53;41.50;;;19.47;;
16660;SDS011;8444;52.012;5.048;2022-12-18T02:17:54;45.33;;;20.40;;
16660;SDS011;8444;52.012;5.048;2022-12-18T02:20:27;43.07;;;20.43;;
16660;SDS011;8444;52.012;5.048;2022-12-18T02:23:10;39.77;;;18.50;;
16660;SDS011;8444;52.012;5.048;2022-12-18T02:28:22;45.43;;;19.57;;
16660;SDS011;8444;52.012;5.048;2022-12-18T02:30:48;46.17;;;21.43;;
16660;SDS011;8444;52.012;5.048;2022-12-18T02:33:15;41.67;;;19.23;;
16660;SDS011;8444;52.012;5.048;2022-12-18T02:35:41;43.63;;;18.77;;
16660;SDS011;8444;52.012;5.048;2022-12-18T02:38:07;42.23;;;19.77;;
16660;SDS011;8444;52.012;5.048;2022-12-18T02:40:33;42.53;;;20.83;;
16660;SDS011;8444;52.012;5.048;2022-12-18T02:43:06;56.20;;;21.60;;
16660;SDS011;8444;52.012;5.048;2022-12-18T02:45:31;43.33;;;19.47;;
16660;SDS011;8444;52.012;5.048;2022-12-18T02:47:57;43.27;;;20.63;;
16660;SDS011;8444;52.012;5.048;2022-12-18T02:50:26;47.47;;;19.70;;
16660;SDS011;8444;52.012;5.048;2022-12-18T02:53:00;43.17;;;18.80;;
16660;SDS011;8444;52.012;5.048;2022-12-18T02:55:45;39.80;;;19.20;;
16660;SDS011;8444;52.012;5.048;2022-12-18T03:00:41;40.27;;;18.77;;
16660;SDS011;8444;52.012;5.048;2022-12-18T03:05:56;45.27;;;19.93;;
16660;SDS011;8444;52.012;5.048;2022-12-18T03:08:24;47.23;;;19.83;;
16660;SDS011;8444;52.012;5.048;2022-12-18T03:10:52;42.63;;;19.30;;
16660;SDS011;8444;52.012;5.048;2022-12-18T03:13:20;40.03;;;17.67;;
16660;SDS011;8444;52.012;5.048;2022-12-18T03:15:48;46.27;;;20.40;;
16660;SDS011;8444;52.012;5.048;2022-12-18T03:18:21;42.53;;;18.53;;
16660;SDS011;8444;52.012;5.048;2022-12-18T03:20:48;44.93;;;21.33;;
16660;SDS011;8444;52.012;5.048;2022-12-18T03:23:17;49.97;;;20.10;;
16660;SDS011;8444;52.012;5.048;2022-12-18T03:25:44;44.87;;;18.47;;
16660;SDS011;8444;52.012;5.048;2022-12-18T03:28:10;46.43;;;19.50;;
16660;SDS011;8444;52.012;5.048;2022-12-18T03:30:37;53.13;;;19.67;;
16660;SDS011;8444;52.012;5.048;2022-12-18T03:33:19;47.23;;;18.73;;
16660;SDS011;8444;52.012;5.048;2022-12-18T03:35:46;43.40;;;19.13;;
16660;SDS011;8444;52.012;5.048;2022-12-18T03:38:11;46.27;;;19.23;;
16660;SDS011;8444;52.012;5.048;2022-12-18T03:43:08;47.87;;;18.73;;
16660;SDS011;8444;52.012;5.048;2022-12-18T03:45:40;45.97;;;19.10;;
16660;SDS011;8444;52.012;5.048;2022-12-18T03:48:13;48.80;;;18.83;;
16660;SDS011;8444;52.012;5.048;2022-12-18T03:50:57;41.83;;;19.13;;
16660;SDS011;8444;52.012;5.048;2022-12-18T03:56:07;41.50;;;18.53;;
16660;SDS011;8444;52.012;5.048;2022-12-18T03:58:33;39.93;;;18.83;;
16660;SDS011;8444;52.012;5.048;2022-12-18T04:01:02;45.27;;;19.87;;
16660;SDS011;8444;52.012;5.048;2022-12-18T04:03:28;42.07;;;17.77;;
16660;SDS011;8444;52.012;5.048;2022-12-18T04:05:54;41.70;;;18.20;;
16660;SDS011;8444;52.012;5.048;2022-12-18T04:08:20;40.93;;;18.90;;
16660;SDS011;8444;52.012;5.048;2022-12-18T04:10:46;36.30;;;16.73;;
16660;SDS011;8444;52.012;5.048;2022-12-18T04:13:11;42.80;;;18.17;;
16660;SDS011;8444;52.012;5.048;2022-12-18T04:15:36;39.47;;;18.90;;
16660;SDS011;8444;52.012;5.048;2022-12-18T04:18:02;41.13;;;19.30;;
16660;SDS011;8444;52.012;5.048;2022-12-18T04:20:28;43.03;;;17.50;;
16660;SDS011;8444;52.012;5.048;2022-12-18T04:22:53;38.43;;;18.20;;
16660;SDS011;8444;52.012;5.048;2022-12-18T04:25:18;36.87;;;18.97;;
16660;SDS011;8444;52.012;5.048;2022-12-18T04:27:43;43.43;;;18.37;;
16660;SDS011;8444;52.012;5.048;2022-12-18T04:30:08;43.20;;;19.97;;
16660;SDS011;8444;52.012;5.048;2022-12-18T04:32:34;41.23;;;19.10;;
16660;SDS011;8444;52.012;5.048;2022-12-18T04:34:59;41.83;;;17.97;;
16660;SDS011;8444;52.012;5.048;2022-12-18T04:37:24;40.73;;;19.43;;
16660;SDS011;8444;52.012;5.048;2022-12-18T04:39:50;40.27;;;17.37;;
16660;SDS011;8444;52.012;5.048;2022-12-18T04:42:15;36.97;;;19.37;;
16660;SDS011;8444;52.012;5.048;2022-12-18T04:44:40;44.57;;;19.90;;
16660;SDS011;8444;52.012;5.048;2022-12-18T04:47:05;40.33;;;21.07;;
16660;SDS011;8444;52.012;5.048;2022-12-18T04:49:31;36.17;;;21.23;;
16660;SDS011;8444;52.012;5.048;2022-12-18T04:51:56;46.90;;;21.43;;
16660;SDS011;8444;52.012;5.048;2022-12-18T04:54:21;49.40;;;23.10;;
16660;SDS011;8444;52.012;5.048;2022-12-18T04:56:47;52.17;;;21.67;;
16660;SDS011;8444;52.012;5.048;2022-12-18T04:59:12;48.47;;;21.33;;
16660;SDS011;8444;52.012;5.048;2022-12-18T05:01:37;44.07;;;22.30;;
16660;SDS011;8444;52.012;5.048;2022-12-18T05:04:02;40.10;;;21.87;;
16660;SDS011;8444;52.012;5.048;2022-12-18T05:06:28;44.77;;;23.57;;
16660;SDS011;8444;52.012;5.048;2022-12-18T05:08:53;43.47;;;24.30;;
16660;SDS011;8444;52.012;5.048;2022-12-18T05:11:18;53.43;;;24.23;;
16660;SDS011;8444;52.012;5.048;2022-12-18T05:13:44;41.57;;;22.67;;
16660;SDS011;8444;52.012;5.048;2022-12-18T05:16:09;44.00;;;22.87;;
16660;SDS011;8444;52.012;5.048;2022-12-18T05:18:35;51.07;;;23.60;;
16660;SDS011;8444;52.012;5.048;2022-12-18T05:21:00;44.37;;;23.80;;
16660;SDS011;8444;52.012;5.048;2022-12-18T05:23:26;47.63;;;23.87;;
16660;SDS011;8444;52.012;5.048;2022-12-18T05:25:52;45.70;;;24.20;;
16660;SDS011;8444;52.012;5.048;2022-12-18T05:28:17;45.37;;;23.30;;
16660;SDS011;8444;52.012;5.048;2022-12-18T05:30:42;50.10;;;23.60;;
16660;SDS011;8444;52.012;5.048;2022-12-18T05:33:07;46.43;;;22.03;;
16660;SDS011;8444;52.012;5.048;2022-12-18T05:35:32;45.33;;;22.17;;
16660;SDS011;8444;52.012;5.048;2022-12-18T05:37:58;44.93;;;22.13;;
16660;SDS011;8444;52.012;5.048;2022-12-18T05:40:23;41.30;;;22.77;;
16660;SDS011;8444;52.012;5.048;2022-12-18T05:42:48;42.37;;;22.10;;
16660;SDS011;8444;52.012;5.048;2022-12-18T05:45:13;39.53;;;20.63;;
16660;SDS011;8444;52.012;5.048;2022-12-18T05:47:38;38.97;;;20.13;;
16660;SDS011;8444;52.012;5.048;2022-12-18T05:50:04;43.23;;;21.37;;
16660;SDS011;8444;52.012;5.048;2022-12-18T05:52:30;37.00;;;18.27;;
16660;SDS011;8444;52.012;5.048;2022-12-18T05:54:55;42.77;;;19.83;;
16660;SDS011;8444;52.012;5.048;2022-12-18T05:57:20;35.73;;;19.40;;
16660;SDS011;8444;52.012;5.048;2022-12-18T05:59:45;36.93;;;19.83;;
16660;SDS011;8444;52.012;5.048;2022-12-18T06:02:11;31.90;;;17.03;;
16660;SDS011;8444;52.012;5.048;2022-12-18T06:04:36;36.70;;;17.20;;
16660;SDS011;8444;52.012;5.048;2022-12-18T06:07:01;35.53;;;17.93;;
16660;SDS011;8444;52.012;5.048;2022-12-18T06:09:29;32.70;;;16.40;;
16660;SDS011;8444;52.012;5.048;2022-12-18T06:11:54;32.03;;;16.83;;
16660;SDS011;8444;52.012;5.048;2022-12-18T06:14:20;28.83;;;15.37;;
16660;SDS011;8444;52.012;5.048;2022-12-18T06:16:45;31.50;;;15.23;;
16660;SDS011;8444;52.012;5.048;2022-12-18T06:19:13;31.33;;;16.37;;
16660;SDS011;8444;52.012;5.048;2022-12-18T06:21:39;30.17;;;15.87;;
16660;SDS011;8444;52.012;5.048;2022-12-18T06:24:04;35.27;;;16.23;;
16660;SDS011;8444;52.012;5.048;2022-12-18T06:26:29;29.20;;;14.67;;
16660;SDS011;8444;52.012;5.048;2022-12-18T06:28:54;34.83;;;15.97;;
16660;SDS011;8444;52.012;5.048;2022-12-18T06:31:20;30.13;;;15.87;;
16660;SDS011;8444;52.012;5.048;2022-12-18T06:33:45;32.83;;;16.80;;
16660;SDS011;8444;52.012;5.048;2022-12-18T06:36:11;29.87;;;14.17;;
16660;SDS011;8444;52.012;5.048;2022-12-18T06:38:38;28.77;;;14.90;;
16660;SDS011;8444;52.012;5.048;2022-12-18T06:41:22;27.93;;;15.73;;
16660;SDS011;8444;52.012;5.048;2022-12-18T06:43:47;30.83;;;14.13;;
16660;SDS011;8444;52.012;5.048;2022-12-18T06:46:12;31.20;;;13.90;;
16660;SDS011;8444;52.012;5.048;2022-12-18T06:48:37;26.53;;;14.17;;
16660;SDS011;8444;52.012;5.048;2022-12-18T06:51:03;22.50;;;13.13;;
16660;SDS011;8444;52.012;5.048;2022-12-18T06:53:28;30.47;;;13.80;;
16660;SDS011;8444;52.012;5.048;2022-12-18T06:56:03;25.40;;;14.33;;
16660;SDS011;8444;52.012;5.048;2022-12-18T06:58:29;24.93;;;14.73;;
16660;SDS011;8444;52.012;5.048;2022-12-18T07:00:59;23.27;;;13.07;;
16660;SDS011;8444;52.012;5.048;2022-12-18T07:03:24;30.20;;;13.27;;
16660;SDS011;8444;52.012;5.048;2022-12-18T07:05:49;26.40;;;15.33;;
16660;SDS011;8444;52.012;5.048;2022-12-18T07:08:14;28.60;;;15.37;;
16660;SDS011;8444;52.012;5.048;2022-12-18T07:10:42;26.67;;;14.33;;
16660;SDS011;8444;52.012;5.048;2022-12-18T07:13:08;27.60;;;15.33;;
16660;SDS011;8444;52.012;5.048;2022-12-18T07:15:33;28.33;;;15.37;;
16660;SDS011;8444;52.012;5.048;2022-12-18T07:17:58;25.83;;;14.97;;
16660;SDS011;8444;52.012;5.048;2022-12-18T07:20:23;24.57;;;14.53;;
16660;SDS011;8444;52.012;5.048;2022-12-18T07:22:48;26.33;;;14.47;;
16660;SDS011;8444;52.012;5.048;2022-12-18T07:25:14;26.23;;;13.93;;
16660;SDS011;8444;52.012;5.048;2022-12-18T07:27:39;23.90;;;13.20;;
16660;SDS011;8444;52.012;5.048;2022-12-18T07:30:05;28.70;;;13.37;;
16660;SDS011;8444;52.012;5.048;2022-12-18T07:32:30;24.60;;;13.43;;
16660;SDS011;8444;52.012;5.048;2022-12-18T07:34:55;24.17;;;12.93;;
16660;SDS011;8444;52.012;5.048;2022-12-18T07:37:20;28.37;;;13.53;;
16660;SDS011;8444;52.012;5.048;2022-12-18T07:39:46;24.23;;;13.13;;
16660;SDS011;8444;52.012;5.048;2022-12-18T07:42:11;24.13;;;13.60;;
16660;SDS011;8444;52.012;5.048;2022-12-18T07:44:55;25.73;;;11.97;;
16660;SDS011;8444;52.012;5.048;2022-12-18T07:47:20;26.20;;;13.90;;
16660;SDS011;8444;52.012;5.048;2022-12-18T07:49:45;25.83;;;14.27;;
16660;SDS011;8444;52.012;5.048;2022-12-18T07:52:10;26.57;;;13.10;;
16660;SDS011;8444;52.012;5.048;2022-12-18T07:54:37;24.47;;;13.87;;
16660;SDS011;8444;52.012;5.048;2022-12-18T07:57:02;25.63;;;13.27;;
16660;SDS011;8444;52.012;5.048;2022-12-18T07:59:27;24.77;;;13.87;;
16660;SDS011;8444;52.012;5.048;2022-12-18T08:01:52;27.43;;;12.90;;
16660;SDS011;8444;52.012;5.048;2022-12-18T08:04:18;26.20;;;14.37;;
16660;SDS011;8444;52.012;5.048;2022-12-18T08:06:43;25.10;;;13.80;;
16660;SDS011;8444;52.012;5.048;2022-12-18T08:09:09;27.07;;;14.03;;
16660;SDS011;8444;52.012;5.048;2022-12-18T08:11:34;28.13;;;14.40;;
16660;SDS011;8444;52.012;5.048;2022-12-18T08:13:59;24.00;;;13.53;;
16660;SDS011;8444;52.012;5.048;2022-12-18T08:16:25;24.07;;;13.23;;
16660;SDS011;8444;52.012;5.048;2022-12-18T08:18:51;30.23;;;14.00;;
16660;SDS011;8444;52.012;5.048;2022-12-18T08:21:18;25.83;;;13.83;;
16660;SDS011;8444;52.012;5.048;2022-12-18T08:23:43;28.53;;;14.27;;
16660;SDS011;8444;52.012;5.048;2022-12-18T08:26:09;27.93;;;14.20;;
16660;SDS011;8444;52.012;5.048;2022-12-18T08:28:34;25.27;;;13.17;;
16660;SDS011;8444;52.012;5.048;2022-12-18T08:30:59;23.20;;;13.57;;
16660;SDS011;8444;52.012;5.048;2022-12-18T08:33:25;24.03;;;13.27;;
16660;SDS011;8444;52.012;5.048;2022-12-18T08:35:51;25.07;;;14.63;;
16660;SDS011;8444;52.012;5.048;2022-12-18T08:38:16;27.47;;;13.20;;
16660;SDS011;8444;52.012;5.048;2022-12-18T08:40:41;24.27;;;14.10;;
16660;SDS011;8444;52.012;5.048;2022-12-18T08:43:07;26.10;;;13.50;;
16660;SDS011;8444;52.012;5.048;2022-12-18T08:45:52;24.30;;;13.00;;
16660;SDS011;8444;52.012;5.048;2022-12-18T08:48:18;26.27;;;13.67;;
16660;SDS011;8444;52.012;5.048;2022-12-18T08:50:43;21.57;;;12.93;;
16660;SDS011;8444;52.012;5.048;2022-12-18T08:53:08;25.30;;;13.57;;
16660;SDS011;8444;52.012;5.048;2022-12-18T08:55:34;26.63;;;14.80;;
16660;SDS011;8444;52.012;5.048;2022-12-18T08:57:59;26.87;;;14.10;;
16660;SDS011;8444;52.012;5.048;2022-12-18T09:00:25;24.13;;;12.60;;
16660;SDS011;8444;52.012;5.048;2022-12-18T09:02:50;22.77;;;12.63;;
16660;SDS011;8444;52.012;5.048;2022-12-18T09:05:15;24.80;;;13.07;;
16660;SDS011;8444;52.012;5.048;2022-12-18T09:07:40;24.07;;;13.90;;
16660;SDS011;8444;52.012;5.048;2022-12-18T09:10:05;27.67;;;14.40;;
16660;SDS011;8444;52.012;5.048;2022-12-18T09:12:31;23.07;;;12.87;;
16660;SDS011;8444;52.012;5.048;2022-12-18T09:14:56;23.23;;;12.53;;
16660;SDS011;8444;52.012;5.048;2022-12-18T09:17:22;24.27;;;13.03;;
16660;SDS011;8444;52.012;5.048;2022-12-18T09:19:47;23.47;;;12.73;;
16660;SDS011;8444;52.012;5.048;2022-12-18T09:22:12;25.80;;;14.07;;
16660;SDS011;8444;52.012;5.048;2022-12-18T09:24:38;23.50;;;13.17;;
16660;SDS011;8444;52.012;5.048;2022-12-18T09:27:04;24.67;;;13.30;;
16660;SDS011;8444;52.012;5.048;2022-12-18T09:29:29;25.17;;;14.07;;
16660;SDS011;8444;52.012;5.048;2022-12-18T09:31:54;26.73;;;12.97;;
16660;SDS011;8444;52.012;5.048;2022-12-18T09:34:19;22.43;;;12.77;;
16660;SDS011;8444;52.012;5.048;2022-12-18T09:36:46;25.53;;;14.70;;
16660;SDS011;8444;52.012;5.048;2022-12-18T09:39:11;25.83;;;15.00;;
16660;SDS011;8444;52.012;5.048;2022-12-18T09:46:47;24.13;;;13.27;;
16660;SDS011;8444;52.012;5.048;2022-12-18T09:49:15;23.67;;;12.40;;
16660;SDS011;8444;52.012;5.048;2022-12-18T09:51:43;20.10;;;11.93;;
16660;SDS011;8444;52.012;5.048;2022-12-18T09:54:14;21.37;;;12.77;;
16660;SDS011;8444;52.012;5.048;2022-12-18T09:56:42;23.40;;;13.13;;
16660;SDS011;8444;52.012;5.048;2022-12-18T09:59:14;26.07;;;12.30;;
16660;SDS011;8444;52.012;5.048;2022-12-18T10:01:42;25.30;;;12.70;;
16660;SDS011;8444;52.012;5.048;2022-12-18T10:04:08;20.77;;;11.77;;
16660;SDS011;8444;52.012;5.048;2022-12-18T10:16:54;22.67;;;13.43;;
16660;SDS011;8444;52.012;5.048;2022-12-18T10:19:24;20.00;;;11.03;;
16660;SDS011;8444;52.012;5.048;2022-12-18T10:21:55;24.57;;;13.27;;
16660;SDS011;8444;52.012;5.048;2022-12-18T10:26:49;19.03;;;12.17;;
16660;SDS011;8444;52.012;5.048;2022-12-18T10:29:14;25.57;;;12.63;;
16660;SDS011;8444;52.012;5.048;2022-12-18T10:31:40;23.67;;;11.40;;
16660;SDS011;8444;52.012;5.048;2022-12-18T10:34:09;25.63;;;13.10;;
16660;SDS011;8444;52.012;5.048;2022-12-18T10:36:34;18.37;;;10.77;;
16660;SDS011;8444;52.012;5.048;2022-12-18T10:41:40;24.97;;;12.90;;
16660;SDS011;8444;52.012;5.048;2022-12-18T10:44:19;16.57;;;10.73;;
16660;SDS011;8444;52.012;5.048;2022-12-18T10:46:45;23.87;;;11.70;;
16660;SDS011;8444;52.012;5.048;2022-12-18T10:49:18;19.27;;;11.03;;
16660;SDS011;8444;52.012;5.048;2022-12-18T10:51:44;19.20;;;11.30;;
16660;SDS011;8444;52.012;5.048;2022-12-18T10:54:14;19.97;;;12.10;;
16660;SDS011;8444;52.012;5.048;2022-12-18T10:56:40;20.43;;;11.70;;
16660;SDS011;8444;52.012;5.048;2022-12-18T10:59:09;20.17;;;12.50;;
16660;SDS011;8444;52.012;5.048;2022-12-18T11:01:45;20.20;;;11.03;;
16660;SDS011;8444;52.012;5.048;2022-12-18T11:04:13;20.47;;;11.07;;
16660;SDS011;8444;52.012;5.048;2022-12-18T11:06:59;20.60;;;12.03;;
16660;SDS011;8444;52.012;5.048;2022-12-18T11:09:29;18.17;;;11.53;;
16660;SDS011;8444;52.012;5.048;2022-12-18T11:11:58;21.57;;;11.90;;
16660;SDS011;8444;52.012;5.048;2022-12-18T11:14:30;18.87;;;12.00;;
16660;SDS011;8444;52.012;5.048;2022-12-18T11:16:56;18.00;;;10.93;;
16660;SDS011;8444;52.012;5.048;2022-12-18T11:22:00;19.20;;;10.83;;
16660;SDS011;8444;52.012;5.048;2022-12-18T11:24:28;20.60;;;11.63;;
16660;SDS011;8444;52.012;5.048;2022-12-18T11:26:54;19.53;;;11.10;;
16660;SDS011;8444;52.012;5.048;2022-12-18T11:29:23;20.67;;;11.13;;
16660;SDS011;8444;52.012;5.048;2022-12-18T11:31:51;19.03;;;11.43;;
16660;SDS011;8444;52.012;5.048;2022-12-18T11:34:23;21.27;;;11.73;;
16660;SDS011;8444;52.012;5.048;2022-12-18T11:36:49;18.37;;;10.90;;
16660;SDS011;8444;52.012;5.048;2022-12-18T11:39:30;18.67;;;11.10;;
16660;SDS011;8444;52.012;5.048;2022-12-18T11:41:59;16.17;;;10.10;;
16660;SDS011;8444;52.012;5.048;2022-12-18T11:44:35;15.97;;;10.37;;
16660;SDS011;8444;52.012;5.048;2022-12-18T11:47:03;19.13;;;10.97;;
16660;SDS011;8444;52.012;5.048;2022-12-18T11:49:32;18.60;;;10.70;;
16660;SDS011;8444;52.012;5.048;2022-12-18T11:54:24;20.27;;;11.73;;
16660;SDS011;8444;52.012;5.048;2022-12-18T12:01:51;16.77;;;10.50;;
16660;SDS011;8444;52.012;5.048;2022-12-18T12:09:25;21.30;;;12.27;;
16660;SDS011;8444;52.012;5.048;2022-12-18T12:14:29;16.97;;;10.27;;
16660;SDS011;8444;52.012;5.048;2022-12-18T12:17:10;16.27;;;10.70;;
16660;SDS011;8444;52.012;5.048;2022-12-18T12:27:15;21.47;;;11.80;;
16660;SDS011;8444;52.012;5.048;2022-12-18T12:37:51;18.27;;;11.80;;
16660;SDS011;8444;52.012;5.048;2022-12-18T12:40:19;19.63;;;10.90;;
16660;SDS011;8444;52.012;5.048;2022-12-18T12:42:50;18.97;;;10.73;;
16660;SDS011;8444;52.012;5.048;2022-12-18T12:45:37;16.70;;;10.80;;
16660;SDS011;8444;52.012;5.048;2022-12-18T12:48:05;17.67;;;10.77;;
16660;SDS011;8444;52.012;5.048;2022-12-18T12:50:32;19.10;;;11.70;;
16660;SDS011;8444;52.012;5.048;2022-12-18T12:52:58;20.00;;;12.50;;
16660;SDS011;8444;52.012;5.048;2022-12-18T12:55:28;17.13;;;10.63;;
16660;SDS011;8444;52.012;5.048;2022-12-18T12:58:07;21.33;;;11.23;;
16660;SDS011;8444;52.012;5.048;2022-12-18T13:00:39;20.27;;;11.07;;
16660;SDS011;8444;52.012;5.048;2022-12-18T13:08:05;19.67;;;11.43;;
16660;SDS011;8444;52.012;5.048;2022-12-18T13:10:36;20.13;;;11.57;;
16660;SDS011;8444;52.012;5.048;2022-12-18T13:13:08;17.80;;;10.73;;
16660;SDS011;8444;52.012;5.048;2022-12-18T13:15:41;23.47;;;11.20;;
16660;SDS011;8444;52.012;5.048;2022-12-18T13:20:44;19.57;;;12.13;;
16660;SDS011;8444;52.012;5.048;2022-12-18T13:25:51;19.67;;;11.27;;
16660;SDS011;8444;52.012;5.048;2022-12-18T13:28:16;19.07;;;10.97;;
16660;SDS011;8444;52.012;5.048;2022-12-18T13:35:38;18.67;;;11.50;;
16660;SDS011;8444;52.012;5.048;2022-12-18T13:38:18;21.30;;;13.67;;
16660;SDS011;8444;52.012;5.048;2022-12-18T13:45:48;18.80;;;11.53;;
16660;SDS011;8444;52.012;5.048;2022-12-18T13:48:15;18.67;;;11.83;;
16660;SDS011;8444;52.012;5.048;2022-12-18T13:50:40;20.13;;;11.60;;
16660;SDS011;8444;52.012;5.048;2022-12-18T13:53:05;14.87;;;10.33;;
16660;SDS011;8444;52.012;5.048;2022-12-18T13:55:31;20.37;;;11.37;;
16660;SDS011;8444;52.012;5.048;2022-12-18T13:58:03;18.23;;;10.97;;
16660;SDS011;8444;52.012;5.048;2022-12-18T14:00:29;19.70;;;10.73;;
16660;SDS011;8444;52.012;5.048;2022-12-18T14:02:55;20.50;;;11.70;;
16660;SDS011;8444;52.012;5.048;2022-12-18T14:05:24;19.07;;;12.33;;
16660;SDS011;8444;52.012;5.048;2022-12-18T14:07:49;20.03;;;11.37;;
16660;SDS011;8444;52.012;5.048;2022-12-18T14:10:15;20.93;;;11.40;;
16660;SDS011;8444;52.012;5.048;2022-12-18T14:12:44;19.47;;;11.07;;
16660;SDS011;8444;52.012;5.048;2022-12-18T14:15:34;18.83;;;12.43;;
16660;SDS011;8444;52.012;5.048;2022-12-18T14:18:13;19.73;;;11.23;;
16660;SDS011;8444;52.012;5.048;2022-12-18T14:20:43;21.23;;;10.50;;
16660;SDS011;8444;52.012;5.048;2022-12-18T14:23:25;16.03;;;10.47;;
16660;SDS011;8444;52.012;5.048;2022-12-18T14:25:50;19.63;;;12.07;;
16660;SDS011;8444;52.012;5.048;2022-12-18T14:28:16;24.77;;;12.90;;
16660;SDS011;8444;52.012;5.048;2022-12-18T14:30:42;16.53;;;10.33;;
16660;SDS011;8444;52.012;5.048;2022-12-18T14:33:12;18.10;;;10.70;;
16660;SDS011;8444;52.012;5.048;2022-12-18T14:35:41;19.33;;;11.60;;
16660;SDS011;8444;52.012;5.048;2022-12-18T14:38:09;18.57;;;11.03;;
16660;SDS011;8444;52.012;5.048;2022-12-18T14:40:34;18.30;;;11.37;;
16660;SDS011;8444;52.012;5.048;2022-12-18T14:42:59;21.20;;;11.97;;
16660;SDS011;8444;52.012;5.048;2022-12-18T14:45:37;16.70;;;10.83;;
16660;SDS011;8444;52.012;5.048;2022-12-18T14:48:07;20.00;;;10.70;;
16660;SDS011;8444;52.012;5.048;2022-12-18T14:50:33;19.00;;;12.03;;
16660;SDS011;8444;52.012;5.048;2022-12-18T14:52:58;23.10;;;12.10;;
16660;SDS011;8444;52.012;5.048;2022-12-18T14:55:23;20.97;;;11.97;;
16660;SDS011;8444;52.012;5.048;2022-12-18T14:57:52;19.40;;;10.93;;
16660;SDS011;8444;52.012;5.048;2022-12-18T15:00:20;21.20;;;12.53;;
16660;SDS011;8444;52.012;5.048;2022-12-18T15:02:50;18.43;;;11.33;;
16660;SDS011;8444;52.012;5.048;2022-12-18T15:05:26;18.23;;;10.73;;
16660;SDS011;8444;52.012;5.048;2022-12-18T15:07:53;21.20;;;11.27;;
16660;SDS011;8444;52.012;5.048;2022-12-18T15:10:19;20.53;;;12.93;;
16660;SDS011;8444;52.012;5.048;2022-12-18T15:17:58;22.27;;;12.10;;
16660;SDS011;8444;52.012;5.048;2022-12-18T15:20:28;18.60;;;11.17;;
16660;SDS011;8444;52.012;5.048;2022-12-18T15:22:56;24.80;;;13.70;;
16660;SDS011;8444;52.012;5.048;2022-12-18T15:25:37;25.57;;;12.13;;
16660;SDS011;8444;52.012;5.048;2022-12-18T15:28:03;21.03;;;12.23;;
16660;SDS011;8444;52.012;5.048;2022-12-18T15:30:28;25.07;;;11.37;;
16660;SDS011;8444;52.012;5.048;2022-12-18T15:33:15;22.17;;;12.10;;
16660;SDS011;8444;52.012;5.048;2022-12-18T15:35:38;19.77;;;12.33;;
16660;SDS011;8444;52.012;5.048;2022-12-18T15:38:04;18.73;;;10.83;;
16660;SDS011;8444;52.012;5.048;2022-12-18T15:40:29;19.10;;;10.83;;
16660;SDS011;8444;52.012;5.048;2022-12-18T15:42:54;21.10;;;11.67;;
16660;SDS011;8444;52.012;5.048;2022-12-18T15:45:38;19.67;;;11.63;;
16660;SDS011;8444;52.012;5.048;2022-12-18T15:48:09;23.43;;;13.77;;
16660;SDS011;8444;52.012;5.048;2022-12-18T15:50:39;22.37;;;12.93;;
16660;SDS011;8444;52.012;5.048;2022-12-18T15:53:04;20.13;;;11.57;;
16660;SDS011;8444;52.012;5.048;2022-12-18T15:55:29;22.53;;;12.60;;
16660;SDS011;8444;52.012;5.048;2022-12-18T15:58:13;22.27;;;13.07;;
16660;SDS011;8444;52.012;5.048;2022-12-18T16:00:39;21.17;;;12.67;;
16660;SDS011;8444;52.012;5.048;2022-12-18T16:03:04;21.60;;;12.17;;
16660;SDS011;8444;52.012;5.048;2022-12-18T16:05:30;22.63;;;12.50;;
16660;SDS011;8444;52.012;5.048;2022-12-18T16:07:55;23.77;;;12.83;;
16660;SDS011;8444;52.012;5.048;2022-12-18T16:10:20;22.60;;;12.43;;
16660;SDS011;8444;52.012;5.048;2022-12-18T16:12:46;19.73;;;12.17;;
16660;SDS011;8444;52.012;5.048;2022-12-18T16:15:14;20.37;;;11.57;;